Time;durP1;ratioP1;P1;durP2;ratioP2;P2;SDS_P1;SDS_P2;PMS_P1;PMS_P2;Temp;Humidity;BMP_temperature;BMP_pressure;BME280_temperature;BME280_humidity;BME280_pressure;Samples;Min_cycle;Max_cycle;Signal;HPM_P1;HPM_P2
2022/12/30 00:00:36;;;;;;;18.70;6.07;;;6.60;99.90;;;;;;5093901;28;20215;-68
2022/12/30 00:03:02;;;;;;;14.80;5.80;;;6.50;99.90;;;;;;5093651;28;20169;-68
2022/12/30 00:05:28;;;;;;;12.13;4.97;;;6.50;99.90;;;;;;5093953;28;20205;-67
2022/12/30 00:07:54;;;;;;;13.77;5.00;;;6.50;99.90;;;;;;5093722;28;20173;-68
2022/12/30 00:10:19;;;;;;;15.00;5.20;;;6.60;99.90;;;;;;5092311;28;20224;-67
2022/12/30 00:35:17;;;;;;;9.70;5.67;;;6.50;99.90;;;;;;5098191;28;20327;-67
2022/12/30 00:37:43;;;;;;;12.27;5.47;;;6.50;99.90;;;;;;5096537;28;20533;-67
2022/12/30 00:40:10;;;;;;;10.50;5.40;;;6.50;99.90;;;;;;5097474;28;20242;-67
2022/12/30 00:45:21;;;;;;;19.33;5.97;;;6.50;99.90;;;;;;5097224;28;20199;-67
2022/12/30 00:47:47;;;;;;;15.83;5.30;;;6.50;99.90;;;;;;5096074;28;20172;-67
2022/12/30 00:58:25;;;;;;;16.03;6.50;;;6.50;99.90;;;;;;5097092;28;20167;-67
2022/12/30 01:00:50;;;;;;;20.27;6.60;;;6.50;99.90;;;;;;5096881;28;20263;-67
2022/12/30 01:03:16;;;;;;;14.67;6.27;;;6.50;99.90;;;;;;5096945;28;20180;-67
2022/12/30 01:05:42;;;;;;;14.00;6.30;;;6.50;99.90;;;;;;5097052;28;20235;-67
2022/12/30 01:08:08;;;;;;;17.07;6.30;;;6.50;99.90;;;;;;5097168;28;20196;-67
2022/12/30 01:10:34;;;;;;;14.07;5.50;;;6.50;99.90;;;;;;5096768;28;20201;-67
2022/12/30 01:12:59;;;;;;;17.63;6.37;;;6.50;99.90;;;;;;5097052;28;20161;-67
2022/12/30 01:15:25;;;;;;;12.33;5.30;;;6.50;99.90;;;;;;5096803;28;20177;-68
2022/12/30 01:17:51;;;;;;;16.20;6.03;;;6.50;99.90;;;;;;5096815;28;20181;-67
2022/12/30 01:20:17;;;;;;;15.23;6.27;;;6.50;99.90;;;;;;5096742;28;20247;-67
2022/12/30 01:22:42;;;;;;;15.03;5.60;;;6.60;99.90;;;;;;5096852;28;20173;-68
2022/12/30 01:25:09;;;;;;;13.67;5.60;;;6.60;99.90;;;;;;5096893;28;20193;-68
2022/12/30 01:27:34;;;;;;;13.33;6.23;;;6.50;99.90;;;;;;5096425;28;20173;-67
2022/12/30 01:30:00;;;;;;;14.93;6.10;;;6.50;99.90;;;;;;5096384;28;20523;-67
2022/12/30 01:32:29;;;;;;;9.80;5.30;;;6.50;99.90;;;;;;5096997;28;20205;-67
2022/12/30 01:34:55;;;;;;;8.90;5.60;;;6.50;99.90;;;;;;5095265;28;20173;-67
2022/12/30 01:37:22;;;;;;;20.17;6.30;;;6.50;99.90;;;;;;5095281;28;20177;-67
2022/12/30 01:39:48;;;;;;;13.10;5.63;;;6.40;99.90;;;;;;5095446;28;20624;-67
2022/12/30 01:42:26;;;;;;;13.80;5.63;;;6.40;99.90;;;;;;5096669;28;20164;-67
2022/12/30 01:45:02;;;;;;;12.07;5.73;;;6.40;99.90;;;;;;5096359;28;20199;-67
2022/12/30 01:47:28;;;;;;;18.37;5.87;;;6.30;99.90;;;;;;5095530;28;20613;-67
2022/12/30 01:50:06;;;;;;;8.10;5.27;;;6.30;99.90;;;;;;5096557;28;20193;-67
2022/12/30 01:52:34;;;;;;;13.40;5.37;;;6.30;99.90;;;;;;5096630;28;20189;-66
2022/12/30 01:55:07;;;;;;;20.43;7.27;;;6.30;99.90;;;;;;5096665;28;20535;-67
2022/12/30 01:57:34;;;;;;;24.93;5.23;;;6.40;99.90;;;;;;5096602;28;20256;-67
2022/12/30 02:00:03;;;;;;;12.77;5.33;;;6.40;99.90;;;;;;5096376;28;20185;-68
2022/12/30 02:02:30;;;;;;;10.97;5.60;;;6.40;99.90;;;;;;5094698;28;20649;-67
2022/12/30 02:04:57;;;;;;;10.07;5.83;;;6.40;99.90;;;;;;5095981;28;20259;-67
2022/12/30 02:07:41;;;;;;;14.43;5.90;;;6.30;99.90;;;;;;5096329;28;20238;-67
2022/12/30 02:10:08;;;;;;;17.50;6.83;;;6.30;99.90;;;;;;5096074;28;20276;-67
2022/12/30 02:12:34;;;;;;;15.27;6.17;;;6.20;99.90;;;;;;5096140;28;20204;-67
2022/12/30 02:15:02;;;;;;;17.03;5.50;;;6.20;99.90;;;;;;5096000;28;20173;-67
2022/12/30 02:17:45;;;;;;;18.90;5.90;;;6.20;99.90;;;;;;5096038;28;20664;-67
2022/12/30 02:20:23;;;;;;;15.00;6.43;;;6.30;99.90;;;;;;5095670;28;20193;-67
2022/12/30 02:23:09;;;;;;;13.73;5.87;;;6.30;99.90;;;;;;5095867;28;20157;-68
2022/12/30 02:26:01;;;;;;;11.97;5.20;;;6.30;99.90;;;;;;5095370;28;20268;-67
2022/12/30 02:28:47;;;;;;;13.33;6.03;;;6.30;99.90;;;;;;5095502;28;20165;-67
2022/12/30 02:31:23;;;;;;;11.83;6.00;;;6.20;99.90;;;;;;5095165;28;20201;-67
2022/12/30 02:33:52;;;;;;;11.70;5.67;;;6.20;99.90;;;;;;5095215;28;20218;-68
2022/12/30 02:37:15;;;;;;;13.17;6.33;;;6.20;99.90;;;;;;5095106;28;20180;-67
2022/12/30 02:39:57;;;;;;;10.77;5.20;;;6.20;99.90;;;;;;5071964;28;20547;-67
2022/12/30 02:45:36;;;;;;;16.87;6.77;;;6.20;99.90;;;;;;5094804;28;20219;-67
2022/12/30 02:48:09;;;;;;;11.03;5.87;;;6.20;99.90;;;;;;5094913;28;20182;-67
2022/12/30 02:53:28;;;;;;;15.37;5.60;;;6.10;99.90;;;;;;5095388;28;20230;-67
2022/12/30 02:55:55;;;;;;;12.07;5.50;;;6.20;99.90;;;;;;5094791;28;20165;-67
2022/12/30 02:58:23;;;;;;;15.90;6.03;;;6.10;99.90;;;;;;5094861;28;20218;-68
2022/12/30 03:04:05;;;;;;;13.03;5.70;;;6.10;99.90;;;;;;5094670;28;20168;-68
2022/12/30 03:06:48;;;;;;;16.00;5.63;;;6.00;99.90;;;;;;5094558;28;20276;-67
2022/12/30 03:09:18;;;;;;;13.17;5.27;;;6.10;99.90;;;;;;5094585;28;20225;-67
2022/12/30 03:11:58;;;;;;;20.00;5.77;;;6.00;99.90;;;;;;5094816;28;20687;-68
2022/12/30 03:14:41;;;;;;;14.57;5.57;;;6.00;99.90;;;;;;5094654;28;20160;-68
2022/12/30 03:17:13;;;;;;;13.33;6.53;;;6.00;99.90;;;;;;5094879;28;20161;-68
2022/12/30 03:19:44;;;;;;;18.10;5.97;;;5.90;99.90;;;;;;5094639;28;20196;-67
2022/12/30 03:27:03;;;;;;;12.60;6.13;;;5.90;99.90;;;;;;5094678;28;20240;-68
2022/12/30 03:27:45;;;;;;;11.37;5.63;;;5.80;99.90;;;;;;5094660;28;20246;-68
2022/12/30 03:30:14;;;;;;;14.70;5.83;;;5.80;99.90;;;;;;5094240;28;20292;-68
2022/12/30 03:32:40;;;;;;;12.00;5.33;;;5.80;99.90;;;;;;5094809;28;20590;-68
2022/12/30 03:35:07;;;;;;;10.77;5.50;;;5.80;99.90;;;;;;5092911;28;20195;-68
2022/12/30 03:37:44;;;;;;;11.63;5.93;;;5.80;99.90;;;;;;5092978;28;20180;-68
2022/12/30 03:40:16;;;;;;;10.57;5.67;;;5.80;99.90;;;;;;5094148;28;20555;-68
2022/12/30 03:42:44;;;;;;;15.83;6.10;;;5.80;99.90;;;;;;5094177;28;20162;-68
2022/12/30 03:45:11;;;;;;;9.63;5.50;;;5.80;99.90;;;;;;5094785;28;20189;-67
2022/12/30 03:47:37;;;;;;;12.33;6.60;;;5.80;99.90;;;;;;5093553;28;20555;-67
2022/12/30 03:50:03;;;;;;;13.90;6.03;;;5.80;99.90;;;;;;5093295;28;20196;-67
2022/12/30 03:52:29;;;;;;;21.40;7.30;;;5.80;99.90;;;;;;5094749;28;20177;-67
2022/12/30 03:54:54;;;;;;;14.30;6.07;;;5.80;99.90;;;;;;5094871;28;20548;-67
2022/12/30 03:57:20;;;;;;;11.57;5.67;;;5.80;99.90;;;;;;5094433;28;20184;-67
2022/12/30 03:59:46;;;;;;;11.97;5.67;;;5.80;99.90;;;;;;5093714;28;20193;-67
2022/12/30 04:02:11;;;;;;;15.80;5.90;;;5.80;99.90;;;;;;5093722;28;20181;-67
2022/12/30 04:04:37;;;;;;;19.30;5.97;;;5.80;99.90;;;;;;5093917;28;20169;-67
2022/12/30 04:07:03;;;;;;;12.10;5.77;;;5.80;99.90;;;;;;5093788;28;20200;-67
2022/12/30 04:09:28;;;;;;;14.73;5.80;;;5.80;99.90;;;;;;5094287;28;20188;-67
2022/12/30 04:11:54;;;;;;;11.33;5.60;;;5.80;99.90;;;;;;5092668;28;20181;-67
2022/12/30 04:14:20;;;;;;;11.53;6.20;;;5.80;99.90;;;;;;5093643;28;20191;-67
2022/12/30 04:16:46;;;;;;;17.43;6.27;;;5.80;99.90;;;;;;5093472;28;20226;-67
2022/12/30 04:19:12;;;;;;;13.53;6.20;;;5.80;99.90;;;;;;5092281;28;20207;-67
2022/12/30 04:21:38;;;;;;;13.30;5.93;;;5.80;99.90;;;;;;5092308;28;20267;-68
2022/12/30 04:24:05;;;;;;;10.00;5.13;;;5.80;99.90;;;;;;5093493;28;20608;-67
2022/12/30 04:26:31;;;;;;;18.93;5.77;;;5.80;99.90;;;;;;5094065;28;20246;-68
2022/12/30 04:28:57;;;;;;;16.70;6.70;;;5.80;99.90;;;;;;5093407;28;20196;-67
2022/12/30 04:31:23;;;;;;;11.13;5.83;;;5.80;99.90;;;;;;5091919;28;20185;-67
2022/12/30 04:33:53;;;;;;;11.80;5.83;;;5.80;99.90;;;;;;5093465;28;20160;-68
2022/12/30 04:36:20;;;;;;;22.73;5.83;;;5.80;99.90;;;;;;5093453;28;20223;-68
2022/12/30 04:38:46;;;;;;;13.37;5.70;;;5.80;99.90;;;;;;5093863;28;20594;-68
2022/12/30 04:41:12;;;;;;;19.27;6.27;;;5.80;99.90;;;;;;5093210;28;20252;-68
2022/12/30 04:43:38;;;;;;;14.63;5.97;;;5.80;99.90;;;;;;5093328;28;20203;-67
2022/12/30 04:46:05;;;;;;;17.87;5.90;;;5.70;99.90;;;;;;5091955;28;20205;-67
2022/12/30 04:48:31;;;;;;;10.57;5.03;;;5.70;99.90;;;;;;5091971;28;20181;-68
2022/12/30 04:50:57;;;;;;;11.43;5.17;;;5.60;99.90;;;;;;5094219;28;20256;-68
2022/12/30 04:53:23;;;;;;;9.73;5.60;;;5.60;99.90;;;;;;5092037;28;20180;-68
2022/12/30 04:55:53;;;;;;;17.73;6.17;;;5.60;99.90;;;;;;5093212;28;20184;-68
2022/12/30 04:58:19;;;;;;;16.50;6.53;;;5.60;99.90;;;;;;5093273;28;20594;-67
2022/12/30 05:00:47;;;;;;;14.47;5.90;;;5.60;99.90;;;;;;5092890;28;20189;-67
2022/12/30 05:03:12;;;;;;;10.50;5.90;;;5.70;99.90;;;;;;5095268;28;20173;-67
2022/12/30 05:05:38;;;;;;;9.73;5.60;;;5.70;99.90;;;;;;5096904;28;20201;-68
2022/12/30 05:08:04;;;;;;;18.20;5.70;;;5.70;99.90;;;;;;5096917;28;20181;-67
2022/12/30 05:10:33;;;;;;;16.57;5.67;;;5.70;99.90;;;;;;5096363;28;20212;-67
2022/12/30 05:12:58;;;;;;;10.57;5.27;;;5.70;99.90;;;;;;5096988;28;20569;-67
2022/12/30 05:15:24;;;;;;;13.87;5.77;;;5.70;99.90;;;;;;5096755;28;20228;-67
2022/12/30 05:17:50;;;;;;;14.30;5.43;;;5.70;99.90;;;;;;5096991;28;20192;-67
2022/12/30 05:20:16;;;;;;;6.87;5.80;;;5.80;99.90;;;;;;5096760;28;20201;-67
2022/12/30 05:22:41;;;;;;;9.37;5.83;;;5.70;99.90;;;;;;5096857;28;20173;-67
2022/12/30 05:27:52;;;;;;;8.87;5.33;;;5.70;99.90;;;;;;5096681;28;20632;-67
2022/12/30 05:30:18;;;;;;;14.27;5.63;;;5.70;99.90;;;;;;5096307;28;20196;-67
2022/12/30 05:32:44;;;;;;;12.20;5.50;;;5.70;99.90;;;;;;5095144;28;20181;-67
2022/12/30 05:35:10;;;;;;;13.73;5.73;;;5.70;99.90;;;;;;5095209;28;20180;-67
2022/12/30 05:37:35;;;;;;;10.57;5.67;;;5.70;99.90;;;;;;5096378;28;20256;-67
2022/12/30 05:40:03;;;;;;;10.47;6.17;;;5.70;99.90;;;;;;5096916;28;20661;-67
2022/12/30 05:42:28;;;;;;;9.23;5.90;;;5.70;99.90;;;;;;5096229;28;20220;-67
2022/12/30 05:44:54;;;;;;;16.07;5.57;;;5.70;99.90;;;;;;5096033;28;20220;-67
2022/12/30 05:47:20;;;;;;;15.00;5.97;;;5.70;99.90;;;;;;5095055;28;20177;-67
2022/12/30 05:49:46;;;;;;;15.57;5.73;;;5.70;99.90;;;;;;5096106;28;20189;-67
2022/12/30 05:52:11;;;;;;;17.63;6.00;;;5.70;99.90;;;;;;5096154;28;20644;-67
2022/12/30 05:54:37;;;;;;;13.40;6.03;;;5.70;99.90;;;;;;5096436;28;20208;-67
2022/12/30 05:57:03;;;;;;;8.50;5.30;;;5.80;99.90;;;;;;5096517;28;20216;-67
2022/12/30 05:59:29;;;;;;;7.37;5.70;;;5.80;99.90;;;;;;5095873;28;20205;-68
2022/12/30 06:01:54;;;;;;;11.73;5.53;;;5.80;99.90;;;;;;5095724;28;20185;-67
2022/12/30 06:04:20;;;;;;;9.60;5.40;;;5.80;99.90;;;;;;5096090;28;20538;-67
2022/12/30 06:06:46;;;;;;;12.40;5.20;;;5.80;99.90;;;;;;5095772;28;20197;-67
2022/12/30 06:09:12;;;;;;;11.30;5.40;;;5.80;99.90;;;;;;5095652;28;20268;-67
2022/12/30 06:11:38;;;;;;;13.00;5.30;;;5.90;99.90;;;;;;5096050;28;20252;-67
2022/12/30 06:14:03;;;;;;;6.90;4.77;;;5.90;99.90;;;;;;5094362;28;20200;-67
2022/12/30 06:16:29;;;;;;;15.93;5.50;;;5.90;99.90;;;;;;5095504;28;20182;-67
2022/12/30 06:18:55;;;;;;;10.40;5.67;;;5.90;99.90;;;;;;5096442;28;20200;-67
2022/12/30 06:21:20;;;;;;;12.27;5.47;;;5.90;99.90;;;;;;5095872;28;20181;-67
2022/12/30 06:23:46;;;;;;;17.60;5.40;;;5.90;99.90;;;;;;5095421;28;20537;-67
2022/12/30 06:26:12;;;;;;;14.00;5.43;;;5.90;99.90;;;;;;5095588;28;20235;-67
2022/12/30 06:28:37;;;;;;;17.37;5.80;;;5.90;99.90;;;;;;5095867;28;20197;-67
2022/12/30 06:31:03;;;;;;;12.30;5.77;;;5.90;99.90;;;;;;5095503;28;20188;-68
2022/12/30 06:33:29;;;;;;;11.13;5.30;;;5.90;99.90;;;;;;5095331;28;20177;-67
2022/12/30 06:35:55;;;;;;;12.27;5.30;;;5.90;99.90;;;;;;5095327;28;20195;-67
2022/12/30 06:38:20;;;;;;;15.73;5.53;;;5.90;99.90;;;;;;5095726;28;20294;-67
2022/12/30 06:40:46;;;;;;;17.03;5.23;;;5.90;99.90;;;;;;5095557;28;20209;-67
2022/12/30 06:43:13;;;;;;;12.20;5.67;;;6.00;99.90;;;;;;5095078;28;20196;-67
2022/12/30 06:45:39;;;;;;;9.40;5.57;;;6.00;99.90;;;;;;5095372;28;20236;-67
2022/12/30 06:48:05;;;;;;;10.97;6.10;;;6.00;99.90;;;;;;5094919;28;20241;-67
2022/12/30 06:50:31;;;;;;;9.47;5.43;;;6.10;99.90;;;;;;5095259;28;20724;-67
2022/12/30 06:52:57;;;;;;;12.07;5.50;;;6.10;99.90;;;;;;5094808;28;20512;-67
2022/12/30 06:55:23;;;;;;;15.37;5.17;;;6.00;99.90;;;;;;5094749;28;20205;-67
2022/12/30 06:57:49;;;;;;;13.30;5.40;;;6.10;99.90;;;;;;5095290;28;20234;-67
2022/12/30 07:00:15;;;;;;;13.90;5.83;;;6.10;99.90;;;;;;5094390;28;20213;-67
2022/12/30 07:02:41;;;;;;;8.10;5.37;;;6.10;99.90;;;;;;5093507;28;20535;-67
2022/12/30 07:05:08;;;;;;;19.60;6.07;;;6.10;99.90;;;;;;5094415;28;20178;-67
2022/12/30 07:07:34;;;;;;;6.17;4.83;;;6.10;99.90;;;;;;5094590;28;20170;-67
2022/12/30 07:09:59;;;;;;;14.60;5.37;;;6.00;99.90;;;;;;5094482;28;20280;-67
2022/12/30 07:12:25;;;;;;;12.17;5.60;;;6.00;99.90;;;;;;5094421;28;20199;-67
2022/12/30 07:14:51;;;;;;;12.73;5.43;;;6.00;99.90;;;;;;5094230;28;20253;-67
2022/12/30 07:17:17;;;;;;;12.30;5.23;;;6.00;99.90;;;;;;5094470;28;20173;-67
2022/12/30 07:19:43;;;;;;;7.57;4.73;;;6.10;99.90;;;;;;5094286;28;20250;-67
2022/12/30 07:22:09;;;;;;;14.70;5.37;;;6.10;99.90;;;;;;5094595;28;20168;-67
2022/12/30 07:24:34;;;;;;;7.70;5.63;;;6.10;99.90;;;;;;5094600;28;20686;-67
2022/12/30 07:27:00;;;;;;;10.50;5.13;;;6.20;99.90;;;;;;5094249;28;20200;-67
2022/12/30 07:29:26;;;;;;;8.03;5.20;;;6.20;99.90;;;;;;5094059;28;20302;-67
2022/12/30 07:31:51;;;;;;;11.93;5.70;;;6.20;99.90;;;;;;5093921;28;20200;-67
2022/12/30 07:34:17;;;;;;;9.50;5.13;;;6.20;99.90;;;;;;5092701;28;20199;-67
2022/12/30 07:36:43;;;;;;;10.23;4.90;;;6.20;99.90;;;;;;5094029;28;20266;-67
2022/12/30 07:39:09;;;;;;;9.77;5.23;;;6.20;99.90;;;;;;5093990;28;20330;-66
2022/12/30 07:41:35;;;;;;;9.23;5.03;;;6.20;99.90;;;;;;5093936;28;20201;-67
2022/12/30 07:44:00;;;;;;;14.50;6.50;;;6.20;99.90;;;;;;5092527;28;20192;-67
2022/12/30 07:46:26;;;;;;;8.13;4.87;;;6.30;99.90;;;;;;5093652;28;20302;-67
2022/12/30 07:48:52;;;;;;;15.43;5.93;;;6.20;99.90;;;;;;5094237;28;20665;-67
2022/12/30 07:51:18;;;;;;;12.90;5.23;;;6.20;99.90;;;;;;5094045;28;20618;-67
2022/12/30 07:53:44;;;;;;;8.80;4.93;;;6.30;99.90;;;;;;5092703;28;20173;-67
2022/12/30 07:56:12;;;;;;;6.23;5.00;;;6.30;99.90;;;;;;5094250;28;20218;-68
2022/12/30 07:58:39;;;;;;;10.60;5.50;;;6.20;99.90;;;;;;5093521;28;20560;-68
2022/12/30 08:01:09;;;;;;;9.97;6.17;;;6.20;99.90;;;;;;5093715;28;20535;-67
2022/12/30 08:03:36;;;;;;;12.00;6.40;;;6.30;99.90;;;;;;5093729;28;20172;-67
2022/12/30 08:06:07;;;;;;;10.20;5.30;;;6.40;99.90;;;;;;5093524;28;20219;-68
2022/12/30 08:08:34;;;;;;;9.10;4.63;;;6.40;99.90;;;;;;5093699;28;20165;-67
2022/12/30 08:11:00;;;;;;;7.67;5.03;;;6.50;99.90;;;;;;5092350;28;20326;-66
2022/12/30 08:13:27;;;;;;;5.43;4.30;;;6.50;99.90;;;;;;5093606;28;20218;-67
2022/12/30 08:15:52;;;;;;;7.30;4.50;;;6.50;99.90;;;;;;5093480;28;20177;-67
2022/12/30 08:18:18;;;;;;;11.47;5.37;;;6.50;99.90;;;;;;5093511;28;20180;-68
2022/12/30 08:20:44;;;;;;;13.00;5.57;;;6.60;99.90;;;;;;5093411;28;20180;-68
2022/12/30 08:23:10;;;;;;;11.63;5.23;;;6.60;99.90;;;;;;5092217;28;20650;-68
2022/12/30 08:25:35;;;;;;;5.63;4.73;;;6.60;99.90;;;;;;5092132;28;20221;-68
2022/12/30 08:28:01;;;;;;;10.43;5.13;;;6.70;99.90;;;;;;5093603;28;20523;-68
2022/12/30 08:30:27;;;;;;;8.63;4.93;;;6.70;99.90;;;;;;5093177;28;20235;-68
2022/12/30 08:32:53;;;;;;;8.90;4.70;;;6.70;99.90;;;;;;5094017;28;20207;-68
2022/12/30 08:35:19;;;;;;;5.17;4.60;;;6.70;99.90;;;;;;5093447;28;20199;-68
2022/12/30 08:37:44;;;;;;;8.37;4.90;;;6.80;99.90;;;;;;5094467;28;20169;-68
2022/12/30 08:40:11;;;;;;;6.93;4.93;;;6.80;99.90;;;;;;5097422;28;20196;-68
2022/12/30 08:42:37;;;;;;;10.23;5.13;;;6.90;99.90;;;;;;5097280;28;20256;-68
2022/12/30 08:45:07;;;;;;;7.67;5.23;;;6.90;99.90;;;;;;5097376;28;20165;-68
2022/12/30 08:47:34;;;;;;;5.30;4.40;;;6.90;99.90;;;;;;5096139;28;20585;-68
2022/12/30 08:50:00;;;;;;;9.17;5.17;;;6.90;99.90;;;;;;5097072;28;20237;-68
2022/12/30 08:52:27;;;;;;;12.60;4.90;;;6.90;99.90;;;;;;5095835;28;20184;-68
2022/12/30 08:54:53;;;;;;;9.20;5.33;;;7.00;99.90;;;;;;5097388;28;20173;-68
2022/12/30 08:57:20;;;;;;;5.53;4.60;;;7.00;99.90;;;;;;5097333;28;20174;-68
2022/12/30 08:59:46;;;;;;;7.87;4.40;;;7.10;99.90;;;;;;5095692;28;20193;-68
2022/12/30 09:02:12;;;;;;;9.90;4.67;;;7.10;99.90;;;;;;5096998;28;20181;-68
2022/12/30 09:04:38;;;;;;;10.27;4.70;;;7.10;99.90;;;;;;5097135;28;20548;-68
2022/12/30 09:07:05;;;;;;;8.37;4.67;;;7.10;99.90;;;;;;5095807;28;20699;-68
2022/12/30 09:09:30;;;;;;;6.77;4.93;;;7.20;99.90;;;;;;5097218;28;20185;-68
2022/12/30 09:11:56;;;;;;;5.20;4.60;;;7.20;99.90;;;;;;5097132;28;20169;-73
2022/12/30 09:14:23;;;;;;;9.53;5.37;;;7.30;99.90;;;;;;5097863;28;20169;-69
2022/12/30 09:16:49;;;;;;;12.10;5.07;;;7.30;99.90;;;;;;5095571;28;20181;-68
2022/12/30 09:19:15;;;;;;;6.17;4.80;;;7.40;99.90;;;;;;5096663;28;20664;-68
2022/12/30 09:21:41;;;;;;;11.63;4.70;;;7.40;99.90;;;;;;5095617;28;20177;-68
2022/12/30 09:24:09;;;;;;;11.53;4.67;;;7.40;99.90;;;;;;5095260;28;20189;-68
2022/12/30 09:26:35;;;;;;;7.67;4.87;;;7.40;99.90;;;;;;5096677;28;20193;-69
2022/12/30 09:29:01;;;;;;;7.03;5.03;;;7.40;99.90;;;;;;5096833;28;20189;-69
2022/12/30 09:31:28;;;;;;;6.07;4.63;;;7.50;99.90;;;;;;5096463;28;20188;-68
2022/12/30 09:33:53;;;;;;;7.70;4.90;;;7.50;99.90;;;;;;5095236;28;20177;-68
2022/12/30 09:36:19;;;;;;;6.63;4.50;;;7.50;99.90;;;;;;5096628;28;20177;-68
2022/12/30 09:38:45;;;;;;;8.00;5.70;;;7.60;99.90;;;;;;5095049;28;20596;-68
2022/12/30 09:41:17;;;;;;;8.07;4.73;;;7.70;99.90;;;;;;5097736;28;20222;-68
2022/12/30 09:44:01;;;;;;;4.90;4.40;;;7.70;99.90;;;;;;5095803;28;20200;-68
2022/12/30 09:46:47;;;;;;;8.90;4.50;;;7.70;99.90;;;;;;5096382;28;20185;-68
2022/12/30 09:49:35;;;;;;;5.80;4.43;;;7.80;99.90;;;;;;5096232;28;20200;-68
2022/12/30 09:52:15;;;;;;;6.70;4.30;;;7.80;99.90;;;;;;5097212;28;20181;-68
2022/12/30 09:54:53;;;;;;;7.13;4.13;;;7.90;99.90;;;;;;5096364;28;20161;-68
2022/12/30 09:57:32;;;;;;;7.50;4.90;;;7.90;99.90;;;;;;5096636;28;20622;-68
2022/12/30 10:00:16;;;;;;;5.17;4.30;;;7.90;99.90;;;;;;5096440;28;20189;-67
2022/12/30 10:02:45;;;;;;;7.80;4.77;;;8.00;99.90;;;;;;5096644;28;20169;-68
2022/12/30 10:05:12;;;;;;;7.23;4.37;;;8.00;99.90;;;;;;5096038;28;20250;-67
2022/12/30 10:07:41;;;;;;;6.90;4.70;;;8.00;99.90;;;;;;5096388;28;20169;-68
2022/12/30 10:10:16;;;;;;;5.70;4.27;;;8.00;99.90;;;;;;5096109;28;20194;-68
2022/12/30 10:12:50;;;;;;;8.20;4.37;;;8.00;99.90;;;;;;5095778;28;20178;-68
2022/12/30 10:15:38;;;;;;;8.00;4.00;;;8.10;99.90;;;;;;5095438;28;20208;-67
2022/12/30 10:18:15;;;;;;;7.13;4.63;;;8.20;99.90;;;;;;5096097;28;20629;-68
2022/12/30 10:21:07;;;;;;;5.77;4.93;;;8.20;99.90;;;;;;5095449;28;20527;-67
2022/12/30 10:24:10;;;;;;;7.83;4.53;;;8.20;99.90;;;;;;5095723;28;20177;-68
2022/12/30 10:26:42;;;;;;;7.30;4.40;;;8.20;99.90;;;;;;5073358;28;20212;-68
2022/12/30 10:29:17;;;;;;;5.50;4.30;;;8.20;99.90;;;;;;5095167;28;20198;-67
2022/12/30 10:31:46;;;;;;;7.57;4.43;;;8.20;99.90;;;;;;5093784;28;20181;-68
2022/12/30 10:34:17;;;;;;;10.20;4.03;;;8.30;99.90;;;;;;5095123;28;20525;-68
2022/12/30 10:37:04;;;;;;;8.60;4.60;;;8.40;99.90;;;;;;5095258;28;20169;-68
2022/12/30 10:39:36;;;;;;;5.67;4.47;;;8.40;99.90;;;;;;5095500;28;20607;-68
2022/12/30 10:42:20;;;;;;;10.07;4.00;;;8.50;99.90;;;;;;5095178;28;20635;-67
2022/12/30 10:45:01;;;;;;;4.77;4.27;;;8.50;99.90;;;;;;5094912;28;20234;-72
2022/12/30 10:47:48;;;;;;;8.13;4.40;;;8.60;99.90;;;;;;5094762;28;20192;-67
2022/12/30 10:50:40;;;;;;;10.00;3.90;;;8.70;99.90;;;;;;5093549;28;20284;-66
2022/12/30 10:53:18;;;;;;;6.63;4.23;;;8.70;99.90;;;;;;5095366;28;20168;-66
2022/12/30 10:56:02;;;;;;;6.10;4.10;;;8.80;99.90;;;;;;5094798;28;20627;-68
2022/12/30 10:58:44;;;;;;;4.97;4.43;;;8.80;99.90;;;;;;5094640;28;20161;-68
2022/12/30 11:01:18;;;;;;;6.80;4.20;;;9.00;99.90;;;;;;5093921;28;20180;-69
2022/12/30 11:03:48;;;;;;;4.90;4.37;;;9.10;99.90;;;;;;5094933;28;20524;-69
2022/12/30 11:06:31;;;;;;;6.43;4.20;;;9.10;99.90;;;;;;5093181;28;20193;-67
2022/12/30 11:09:11;;;;;;;8.20;4.00;;;9.10;99.90;;;;;;5094402;28;20210;-67
2022/12/30 11:14:45;;;;;;;6.93;4.17;;;9.20;99.90;;;;;;5094682;28;20164;-68
2022/12/30 11:17:19;;;;;;;5.90;4.03;;;9.20;99.90;;;;;;5092999;28;20176;-68
2022/12/30 11:19:58;;;;;;;5.37;3.80;;;9.20;99.90;;;;;;5092879;28;20201;-68
2022/12/30 11:22:25;;;;;;;7.43;4.10;;;9.20;99.90;;;;;;5093017;28;20517;-67
2022/12/30 11:25:03;;;;;;;6.60;4.47;;;9.10;99.90;;;;;;5094167;28;20177;-67
2022/12/30 11:27:42;;;;;;;9.63;4.30;;;9.10;99.90;;;;;;5094357;28;20177;-67
2022/12/30 11:30:29;;;;;;;5.23;4.20;;;9.00;99.90;;;;;;5092657;28;20200;-68
2022/12/30 11:32:57;;;;;;;7.27;4.23;;;9.00;99.90;;;;;;5092757;28;20168;-67
2022/12/30 11:35:42;;;;;;;4.37;3.97;;;8.90;99.90;;;;;;5094060;28;20169;-67
2022/12/30 11:38:37;;;;;;;6.27;4.07;;;8.90;99.90;;;;;;5094290;28;20613;-66
2022/12/30 11:41:17;;;;;;;6.73;4.03;;;8.90;99.90;;;;;;5093886;28;20645;-66
2022/12/30 11:43:47;;;;;;;4.93;4.00;;;8.90;99.90;;;;;;5093750;28;20230;-67
2022/12/30 11:46:16;;;;;;;4.50;3.60;;;8.90;99.90;;;;;;5093672;28;20677;-67
2022/12/30 11:48:52;;;;;;;4.80;4.00;;;8.80;99.90;;;;;;5093776;28;20189;-67
2022/12/30 11:51:31;;;;;;;5.30;4.20;;;8.80;99.90;;;;;;5094003;28;20172;-67
2022/12/30 11:54:16;;;;;;;11.27;4.17;;;8.80;99.90;;;;;;5092428;28;20176;-67
2022/12/30 11:56:56;;;;;;;5.53;3.87;;;8.80;99.90;;;;;;5093732;28;20248;-66
2022/12/30 11:59:31;;;;;;;4.73;3.90;;;8.80;99.90;;;;;;5093614;28;20201;-67
2022/12/30 12:02:00;;;;;;;4.47;3.70;;;8.80;99.90;;;;;;5093586;28;20259;-67
2022/12/30 12:04:31;;;;;;;5.87;4.07;;;8.80;99.90;;;;;;5092279;28;20183;-67
2022/12/30 12:06:57;;;;;;;6.27;4.10;;;8.80;99.90;;;;;;5093747;28;20185;-67
2022/12/30 12:09:33;;;;;;;12.97;4.57;;;8.80;99.90;;;;;;5093693;28;20250;-67
2022/12/30 12:12:04;;;;;;;6.03;4.33;;;8.80;99.90;;;;;;5093831;28;20593;-67
2022/12/30 12:14:39;;;;;;;7.03;4.00;;;8.70;99.90;;;;;;5093688;28;20236;-67
2022/12/30 12:17:19;;;;;;;7.90;3.83;;;8.70;99.90;;;;;;5093505;28;20167;-67
2022/12/30 12:19:48;;;;;;;9.43;4.63;;;8.70;99.90;;;;;;5093453;28;20185;-66
2022/12/30 12:22:25;;;;;;;10.03;4.03;;;8.70;99.90;;;;;;5093786;28;20623;-66
2022/12/30 12:25:05;;;;;;;10.53;3.90;;;8.70;99.90;;;;;;5092421;28;20234;-66
2022/12/30 12:27:31;;;;;;;8.23;4.47;;;8.60;99.90;;;;;;5093883;28;20665;-65
2022/12/30 12:29:57;;;;;;;4.77;4.10;;;8.70;99.90;;;;;;5093138;28;20224;-66
2022/12/30 12:32:47;;;;;;;5.63;4.23;;;8.80;99.90;;;;;;5093108;28;20169;-66
2022/12/30 12:35:43;;;;;;;6.13;4.10;;;8.70;99.90;;;;;;5093302;28;20236;-66
2022/12/30 12:38:44;;;;;;;4.23;3.80;;;8.80;99.90;;;;;;5092113;28;20513;-67
2022/12/30 12:41:43;;;;;;;6.50;4.43;;;8.80;99.90;;;;;;5071213;28;20704;-67
2022/12/30 12:44:42;;;;;;;10.73;4.20;;;8.80;99.90;;;;;;5093324;28;20269;-67
2022/12/30 12:47:26;;;;;;;7.00;4.43;;;8.80;99.90;;;;;;5093061;28;20192;-67
2022/12/30 12:50:21;;;;;;;5.80;3.87;;;8.80;99.90;;;;;;5093168;28;20185;-66
2022/12/30 12:53:23;;;;;;;4.50;4.00;;;8.90;99.90;;;;;;5093443;28;20323;-67
2022/12/30 12:56:15;;;;;;;6.50;3.80;;;9.00;99.90;;;;;;5091895;28;20172;-67
2022/12/30 12:58:44;;;;;;;5.97;4.17;;;9.00;99.90;;;;;;5076399;28;20209;-67
2022/12/30 13:01:33;;;;;;;7.00;4.10;;;9.00;99.90;;;;;;5092968;28;20185;-67
2022/12/30 13:04:07;;;;;;;7.93;4.23;;;9.00;99.90;;;;;;5090036;28;20197;-66
2022/12/30 13:06:41;;;;;;;6.17;3.53;;;9.00;99.90;;;;;;5091921;28;20195;-67
2022/12/30 13:09:28;;;;;;;5.43;3.90;;;9.00;99.90;;;;;;5093438;28;20658;-67
2022/12/30 13:12:04;;;;;;;4.77;4.20;;;9.00;99.90;;;;;;5091896;28;20165;-67
2022/12/30 13:14:41;;;;;;;3.90;3.60;;;9.10;99.90;;;;;;5093089;28;20149;-67
2022/12/30 13:17:28;;;;;;;7.03;4.00;;;9.10;99.90;;;;;;5091700;28;20259;-67
2022/12/30 13:19:59;;;;;;;5.03;3.43;;;9.10;99.90;;;;;;5093114;28;20193;-67
2022/12/30 13:22:31;;;;;;;6.23;3.83;;;9.20;99.90;;;;;;5093212;28;20162;-67
2022/12/30 13:24:58;;;;;;;5.13;3.60;;;9.20;99.90;;;;;;5096017;28;20161;-68
2022/12/30 13:27:33;;;;;;;4.70;3.53;;;9.20;99.90;;;;;;5096671;28;20677;-67
2022/12/30 13:30:01;;;;;;;6.03;3.60;;;9.30;99.90;;;;;;5096652;28;20560;-68
2022/12/30 13:32:46;;;;;;;4.07;3.60;;;9.40;99.90;;;;;;5096408;28;20165;-67
2022/12/30 13:35:47;;;;;;;3.60;3.30;;;9.40;99.90;;;;;;5096521;28;20176;-67
2022/12/30 13:38:25;;;;;;;5.93;3.60;;;9.40;99.90;;;;;;5096011;28;20648;-67
2022/12/30 13:41:20;;;;;;;6.40;3.60;;;9.50;99.90;;;;;;5095175;28;20601;-67
2022/12/30 13:43:55;;;;;;;5.87;3.50;;;9.50;99.90;;;;;;5096136;28;20182;-67
2022/12/30 13:46:26;;;;;;;4.93;4.03;;;9.60;99.90;;;;;;5094814;28;20253;-67
2022/12/30 13:49:26;;;;;;;5.53;3.53;;;9.50;99.90;;;;;;5096581;28;20189;-67
2022/12/30 13:52:01;;;;;;;6.67;3.90;;;9.60;99.90;;;;;;5094746;28;20246;-67
2022/12/30 13:54:28;;;;;;;6.20;3.73;;;9.60;99.90;;;;;;5096045;28;20154;-67
2022/12/30 13:56:58;;;;;;;4.53;3.70;;;9.70;99.90;;;;;;5095974;28;20170;-67
2022/12/30 13:59:35;;;;;;;4.27;3.87;;;9.70;99.90;;;;;;5095960;28;20197;-67
2022/12/30 14:02:19;;;;;;;6.53;3.50;;;9.60;99.90;;;;;;5095839;28;20181;-67